sensor_id;sensor_type;location;lat;lon;timestamp;pressure;altitude;pressure_sealevel;temperature;humidity
35878;BME280;21982;49.804;24.072;2023-07-29T00:01:37;96709.72;;;18.15;67.56
35878;BME280;21982;49.804;24.072;2023-07-29T00:04:05;96580.91;;;17.29;67.37
35878;BME280;21982;49.804;24.072;2023-07-29T00:06:30;96639.50;;;17.69;67.27
35878;BME280;21982;49.804;24.072;2023-07-29T00:08:55;96625.41;;;17.57;67.35
35878;BME280;21982;49.804;24.072;2023-07-29T00:11:23;96730.72;;;18.23;67.48
35878;BME280;21982;49.804;24.072;2023-07-29T00:13:49;96708.03;;;18.08;67.50
35878;BME280;21982;49.804;24.072;2023-07-29T00:16:16;96570.31;;;17.17;67.49
35878;BME280;21982;49.804;24.072;2023-07-29T00:18:43;96714.19;;;18.09;67.39
35878;BME280;21982;49.804;24.072;2023-07-29T00:21:08;96712.88;;;18.12;67.54
35878;BME280;21982;49.804;24.072;2023-07-29T00:23:34;96586.00;;;17.30;67.65
35878;BME280;21982;49.804;24.072;2023-07-29T00:25:59;96719.81;;;18.07;67.73
35878;BME280;21982;49.804;24.072;2023-07-29T00:28:24;96659.44;;;17.78;68.07
35878;BME280;21982;49.804;24.072;2023-07-29T00:30:50;96702.66;;;18.08;67.91
35878;BME280;21982;49.804;24.072;2023-07-29T00:33:15;96724.78;;;18.21;67.61
35878;BME280;21982;49.804;24.072;2023-07-29T00:35:40;96714.69;;;18.28;67.65
35878;BME280;21982;49.804;24.072;2023-07-29T00:38:06;96710.22;;;18.33;67.40
35878;BME280;21982;49.804;24.072;2023-07-29T00:40:36;96693.88;;;18.35;67.16
35878;BME280;21982;49.804;24.072;2023-07-29T00:43:05;96708.72;;;18.48;67.03
35878;BME280;21982;49.804;24.072;2023-07-29T00:45:32;96607.88;;;17.88;67.07
35878;BME280;21982;49.804;24.072;2023-07-29T00:47:58;96675.63;;;18.37;66.98
35878;BME280;21982;49.804;24.072;2023-07-29T00:50:24;96710.72;;;18.57;66.73
35878;BME280;21982;49.804;24.072;2023-07-29T00:52:52;96608.19;;;17.91;66.96
35878;BME280;21982;49.804;24.072;2023-07-29T00:55:18;96585.47;;;17.72;66.79
35878;BME280;21982;49.804;24.072;2023-07-29T00:57:44;96612.13;;;17.84;67.00
35878;BME280;21982;49.804;24.072;2023-07-29T01:00:14;96628.00;;;17.90;66.85
35878;BME280;21982;49.804;24.072;2023-07-29T01:02:42;96571.31;;;17.55;67.03
35878;BME280;21982;49.804;24.072;2023-07-29T01:05:07;96704.53;;;18.30;67.14
35878;BME280;21982;49.804;24.072;2023-07-29T01:08:04;96708.28;;;18.29;67.00
35878;BME280;21982;49.804;24.072;2023-07-29T01:16:17;96714.13;;;18.04;67.36
35878;BME280;21982;49.804;24.072;2023-07-29T01:18:47;96718.06;;;17.96;67.70
35878;BME280;21982;49.804;24.072;2023-07-29T01:21:14;96718.06;;;17.96;67.82
35878;BME280;21982;49.804;24.072;2023-07-29T01:23:40;96665.91;;;17.60;68.01
35878;BME280;21982;49.804;24.072;2023-07-29T01:26:06;96657.47;;;17.52;68.26
35878;BME280;21982;49.804;24.072;2023-07-29T01:28:31;96675.22;;;17.58;68.30
35878;BME280;21982;49.804;24.072;2023-07-29T01:31:10;96610.19;;;17.19;68.16
35878;BME280;21982;49.804;24.072;2023-07-29T01:33:48;96710.00;;;17.74;68.40
35878;BME280;21982;49.804;24.072;2023-07-29T01:36:21;96714.78;;;17.72;68.49
35878;BME280;21982;49.804;24.072;2023-07-29T01:38:48;96728.00;;;17.79;68.73
35878;BME280;21982;49.804;24.072;2023-07-29T01:41:15;96732.81;;;17.77;69.03
35878;BME280;21982;49.804;24.072;2023-07-29T01:43:42;96691.94;;;17.48;69.16
35878;BME280;21982;49.804;24.072;2023-07-29T01:46:13;96673.13;;;17.43;68.90
35878;BME280;21982;49.804;24.072;2023-07-29T01:48:38;96688.97;;;17.45;69.22
35878;BME280;21982;49.804;24.072;2023-07-29T01:51:05;96704.03;;;17.51;69.49
35878;BME280;21982;49.804;24.072;2023-07-29T01:53:31;96731.59;;;17.68;69.33
35878;BME280;21982;49.804;24.072;2023-07-29T01:55:56;96664.66;;;17.29;69.32
35878;BME280;21982;49.804;24.072;2023-07-29T01:58:22;96670.63;;;17.36;69.39
35878;BME280;21982;49.804;24.072;2023-07-29T02:00:48;96720.41;;;17.71;69.54
35878;BME280;21982;49.804;24.072;2023-07-29T02:03:13;96732.72;;;17.72;69.61
35878;BME280;21982;49.804;24.072;2023-07-29T02:05:39;96733.78;;;17.71;69.59
35878;BME280;21982;49.804;24.072;2023-07-29T02:08:04;96727.56;;;17.65;69.55
35878;BME280;21982;49.804;24.072;2023-07-29T02:10:29;96722.22;;;17.65;69.65
35878;BME280;21982;49.804;24.072;2023-07-29T02:12:55;96729.50;;;17.70;69.54
35878;BME280;21982;49.804;24.072;2023-07-29T02:15:20;96626.50;;;17.00;69.72
35878;BME280;21982;49.804;24.072;2023-07-29T02:17:46;96652.19;;;17.18;69.74
35878;BME280;21982;49.804;24.072;2023-07-29T02:20:11;96737.53;;;17.70;69.71
35878;BME280;21982;49.804;24.072;2023-07-29T02:22:37;96683.44;;;17.34;69.98
35878;BME280;21982;49.804;24.072;2023-07-29T02:25:02;96740.72;;;17.67;69.95
35878;BME280;21982;49.804;24.072;2023-07-29T02:27:28;96698.22;;;17.37;69.77
35878;BME280;21982;49.804;24.072;2023-07-29T02:29:54;96725.22;;;17.52;70.08
35878;BME280;21982;49.804;24.072;2023-07-29T02:32:20;96743.28;;;17.62;69.99
35878;BME280;21982;49.804;24.072;2023-07-29T02:34:45;96738.44;;;17.59;70.17
35878;BME280;21982;49.804;24.072;2023-07-29T02:37:11;96582.84;;;16.61;70.01
35878;BME280;21982;49.804;24.072;2023-07-29T02:39:36;96694.28;;;17.23;70.32
35878;BME280;21982;49.804;24.072;2023-07-29T02:42:02;96676.03;;;17.03;70.25
35878;BME280;21982;49.804;24.072;2023-07-29T02:44:28;96696.63;;;17.19;70.62
35878;BME280;21982;49.804;24.072;2023-07-29T02:46:53;96634.06;;;16.87;70.27
35878;BME280;21982;49.804;24.072;2023-07-29T02:49:21;96671.00;;;17.06;70.47
35878;BME280;21982;49.804;24.072;2023-07-29T02:51:46;96736.41;;;17.49;70.59
35878;BME280;21982;49.804;24.072;2023-07-29T02:54:12;96748.06;;;17.60;70.10
35878;BME280;21982;49.804;24.072;2023-07-29T02:56:37;96754.25;;;17.60;70.59
35878;BME280;21982;49.804;24.072;2023-07-29T02:59:02;96736.31;;;17.44;70.28
35878;BME280;21982;49.804;24.072;2023-07-29T03:01:28;96698.81;;;17.22;70.29
35878;BME280;21982;49.804;24.072;2023-07-29T03:03:53;96744.44;;;17.49;70.49
35878;BME280;21982;49.804;24.072;2023-07-29T03:06:19;96757.16;;;17.59;70.67
35878;BME280;21982;49.804;24.072;2023-07-29T03:08:45;96774.97;;;17.65;70.65
35878;BME280;21982;49.804;24.072;2023-07-29T03:11:13;96765.88;;;17.66;70.39
35878;BME280;21982;49.804;24.072;2023-07-29T03:13:38;96771.53;;;17.69;70.48
35878;BME280;21982;49.804;24.072;2023-07-29T03:18:31;96767.94;;;17.64;70.39
35878;BME280;21982;49.804;24.072;2023-07-29T03:20:57;96763.41;;;17.64;70.33
35878;BME280;21982;49.804;24.072;2023-07-29T03:23:22;96729.03;;;17.39;70.42
35878;BME280;21982;49.804;24.072;2023-07-29T03:25:49;96681.06;;;17.16;70.32
35878;BME280;21982;49.804;24.072;2023-07-29T03:28:16;96784.34;;;17.84;70.17
35878;BME280;21982;49.804;24.072;2023-07-29T03:30:42;96785.47;;;17.88;70.14
35878;BME280;21982;49.804;24.072;2023-07-29T03:33:07;96786.28;;;17.89;70.04
35878;BME280;21982;49.804;24.072;2023-07-29T03:35:32;96790.34;;;17.91;69.95
35878;BME280;21982;49.804;24.072;2023-07-29T03:37:58;96783.66;;;17.94;69.84
35878;BME280;21982;49.804;24.072;2023-07-29T03:40:23;96742.06;;;17.69;69.59
35878;BME280;21982;49.804;24.072;2023-07-29T03:42:49;96787.72;;;17.96;69.72
35878;BME280;21982;49.804;24.072;2023-07-29T03:45:14;96781.72;;;17.89;69.65
35878;BME280;21982;49.804;24.072;2023-07-29T03:47:41;96787.00;;;18.01;69.47
35878;BME280;21982;49.804;24.072;2023-07-29T03:50:06;96788.34;;;18.03;69.63
35878;BME280;21982;49.804;24.072;2023-07-29T03:52:32;96756.41;;;17.80;69.53
35878;BME280;21982;49.804;24.072;2023-07-29T03:54:57;96788.34;;;18.03;69.42
35878;BME280;21982;49.804;24.072;2023-07-29T03:57:22;96749.75;;;17.83;69.46
35878;BME280;21982;49.804;24.072;2023-07-29T03:59:48;96743.53;;;17.77;69.50
35878;BME280;21982;49.804;24.072;2023-07-29T04:02:13;96794.06;;;18.12;69.25
35878;BME280;21982;49.804;24.072;2023-07-29T04:04:39;96798.69;;;18.17;69.28
35878;BME280;21982;49.804;24.072;2023-07-29T04:07:07;96766.41;;;18.06;69.15
35878;BME280;21982;49.804;24.072;2023-07-29T04:09:32;96797.41;;;18.19;68.95
35878;BME280;21982;49.804;24.072;2023-07-29T04:11:58;96728.94;;;17.68;69.16
35878;BME280;21982;49.804;24.072;2023-07-29T04:14:23;96794.97;;;18.18;69.03
35878;BME280;21982;49.804;24.072;2023-07-29T04:16:49;96744.31;;;17.78;68.97
35878;BME280;21982;49.804;24.072;2023-07-29T04:19:14;96664.66;;;17.29;69.03
35878;BME280;21982;49.804;24.072;2023-07-29T04:21:40;96783.59;;;18.11;68.78
35878;BME280;21982;49.804;24.072;2023-07-29T04:24:05;96790.22;;;18.25;68.89
35878;BME280;21982;49.804;24.072;2023-07-29T04:26:30;96787.31;;;18.26;68.78
35878;BME280;21982;49.804;24.072;2023-07-29T04:28:56;96786.31;;;18.32;68.34
35878;BME280;21982;49.804;24.072;2023-07-29T04:31:21;96708.84;;;17.87;68.52
35878;BME280;21982;49.804;24.072;2023-07-29T04:33:46;96753.47;;;18.20;68.29
35878;BME280;21982;49.804;24.072;2023-07-29T04:36:12;96805.22;;;18.64;68.05
35878;BME280;21982;49.804;24.072;2023-07-29T04:38:37;96808.16;;;18.90;67.68
35878;BME280;21982;49.804;24.072;2023-07-29T04:41:03;96762.50;;;18.85;67.21
35878;BME280;21982;49.804;24.072;2023-07-29T04:43:31;96628.06;;;18.22;66.39
35878;BME280;21982;49.804;24.072;2023-07-29T04:45:56;96801.31;;;19.63;65.88
35878;BME280;21982;49.804;24.072;2023-07-29T04:48:22;96819.81;;;19.96;65.33
35878;BME280;21982;49.804;24.072;2023-07-29T04:50:47;96804.19;;;19.88;64.78
35878;BME280;21982;49.804;24.072;2023-07-29T04:53:13;96766.22;;;19.74;64.29
35878;BME280;21982;49.804;24.072;2023-07-29T04:55:42;96556.16;;;18.46;64.12
35878;BME280;21982;49.804;24.072;2023-07-29T04:58:08;96836.19;;;20.37;63.52
35878;BME280;21982;49.804;24.072;2023-07-29T05:00:33;96834.94;;;20.55;63.44
35878;BME280;21982;49.804;24.072;2023-07-29T05:02:59;96799.94;;;20.39;63.29
35878;BME280;21982;49.804;24.072;2023-07-29T05:05:24;96834.47;;;20.68;63.16
35878;BME280;21982;49.804;24.072;2023-07-29T05:07:49;96793.25;;;20.57;62.80
35878;BME280;21982;49.804;24.072;2023-07-29T05:10:15;96818.97;;;21.05;62.22
35878;BME280;21982;49.804;24.072;2023-07-29T05:12:41;96835.19;;;21.46;61.65
35878;BME280;21982;49.804;24.072;2023-07-29T05:15:08;96797.19;;;21.53;60.83
35878;BME280;21982;49.804;24.072;2023-07-29T05:17:33;96830.59;;;22.08;60.33
35878;BME280;21982;49.804;24.072;2023-07-29T05:19:59;96838.00;;;22.56;59.11
35878;BME280;21982;49.804;24.072;2023-07-29T05:22:24;96792.31;;;22.75;58.23
35878;BME280;21982;49.804;24.072;2023-07-29T05:24:50;96793.97;;;23.20;57.21
35878;BME280;21982;49.804;24.072;2023-07-29T05:27:15;96843.09;;;23.95;55.96
35878;BME280;21982;49.804;24.072;2023-07-29T05:29:41;96844.63;;;24.35;55.29
35878;BME280;21982;49.804;24.072;2023-07-29T05:34:42;96586.19;;;23.53;53.81
35878;BME280;21982;49.804;24.072;2023-07-29T05:37:07;96728.91;;;24.89;52.64
35878;BME280;21982;49.804;24.072;2023-07-29T05:39:34;96492.13;;;23.92;51.54
35878;BME280;21982;49.804;24.072;2023-07-29T05:42:00;96759.22;;;25.93;50.96
35878;BME280;21982;49.804;24.072;2023-07-29T05:44:29;96814.44;;;26.98;49.83
35878;BME280;21982;49.804;24.072;2023-07-29T05:46:55;96627.06;;;26.08;48.77
35878;BME280;21982;49.804;24.072;2023-07-29T05:49:22;96838.31;;;27.82;48.32
35878;BME280;21982;49.804;24.072;2023-07-29T05:51:47;96676.41;;;27.31;46.96
35878;BME280;21982;49.804;24.072;2023-07-29T05:54:13;96775.03;;;28.30;46.47
35878;BME280;21982;49.804;24.072;2023-07-29T05:56:38;96676.31;;;28.16;45.74
35878;BME280;21982;49.804;24.072;2023-07-29T05:59:05;96650.91;;;28.29;44.67
35878;BME280;21982;49.804;24.072;2023-07-29T06:01:31;96706.06;;;28.60;44.64
35878;BME280;21982;49.804;24.072;2023-07-29T06:09:53;96798.44;;;30.09;43.26
35878;BME280;21982;49.804;24.072;2023-07-29T06:12:23;96707.31;;;29.75;42.62
35878;BME280;21982;49.804;24.072;2023-07-29T06:14:49;96707.53;;;30.08;41.96
35878;BME280;21982;49.804;24.072;2023-07-29T06:17:14;96770.47;;;31.09;41.58
35878;BME280;21982;49.804;24.072;2023-07-29T06:19:40;96790.00;;;31.61;40.57
35878;BME280;21982;49.804;24.072;2023-07-29T06:22:07;96835.88;;;31.97;40.09
35878;BME280;21982;49.804;24.072;2023-07-29T06:24:32;96568.81;;;30.22;39.98
35878;BME280;21982;49.804;24.072;2023-07-29T06:26:58;96812.84;;;31.98;39.68
35878;BME280;21982;49.804;24.072;2023-07-29T06:29:24;96723.44;;;31.69;39.31
35878;BME280;21982;49.804;24.072;2023-07-29T06:31:50;96825.28;;;31.95;39.27
35878;BME280;21982;49.804;24.072;2023-07-29T06:34:17;96853.88;;;32.52;38.68
35878;BME280;21982;49.804;24.072;2023-07-29T06:36:42;96844.63;;;32.93;38.14
35878;BME280;21982;49.804;24.072;2023-07-29T06:39:07;96618.13;;;31.66;38.17
35878;BME280;21982;49.804;24.072;2023-07-29T06:41:33;96842.44;;;33.35;37.30
35878;BME280;21982;49.804;24.072;2023-07-29T06:43:58;96801.75;;;33.25;37.45
35878;BME280;21982;49.804;24.072;2023-07-29T06:46:24;96778.66;;;33.26;37.50
35878;BME280;21982;49.804;24.072;2023-07-29T06:48:49;96757.59;;;33.30;36.84
35878;BME280;21982;49.804;24.072;2023-07-29T06:51:14;96717.91;;;33.27;36.62
35878;BME280;21982;49.804;24.072;2023-07-29T06:53:41;96756.19;;;33.64;36.38
35878;BME280;21982;49.804;24.072;2023-07-29T06:56:06;96681.34;;;33.23;35.98
35878;BME280;21982;49.804;24.072;2023-07-29T06:58:34;96790.34;;;34.22;35.51
35878;BME280;21982;49.804;24.072;2023-07-29T07:13:27;96843.41;;;34.54;34.85
35878;BME280;21982;49.804;24.072;2023-07-29T07:15:57;96847.56;;;35.11;34.45
35878;BME280;21982;49.804;24.072;2023-07-29T07:18:23;96843.13;;;35.07;34.08
35878;BME280;21982;49.804;24.072;2023-07-29T07:20:49;96844.41;;;35.28;34.01
35878;BME280;21982;49.804;24.072;2023-07-29T07:23:15;96867.66;;;35.47;33.47
35878;BME280;21982;49.804;24.072;2023-07-29T08:41:54;96839.25;;;34.45;33.47
35878;BME280;21982;49.804;24.072;2023-07-29T08:44:26;96716.88;;;34.19;33.26
35878;BME280;21982;49.804;24.072;2023-07-29T08:46:52;96855.22;;;35.91;32.07
35878;BME280;21982;49.804;24.072;2023-07-29T08:49:22;96800.78;;;36.73;30.96
35878;BME280;21982;49.804;24.072;2023-07-29T08:51:49;96836.25;;;37.53;29.95
35878;BME280;21982;49.804;24.072;2023-07-29T08:54:15;96852.00;;;37.79;29.69
35878;BME280;21982;49.804;24.072;2023-07-29T09:28:26;96846.13;;;35.33;31.97
35878;BME280;21982;49.804;24.072;2023-07-29T09:30:53;96842.81;;;35.82;31.33
35878;BME280;21982;49.804;24.072;2023-07-29T09:33:18;96786.06;;;35.58;31.01
35878;BME280;21982;49.804;24.072;2023-07-29T09:35:45;96841.22;;;36.42;30.35
35878;BME280;21982;49.804;24.072;2023-07-29T09:38:14;96710.09;;;35.57;30.29
35878;BME280;21982;49.804;24.072;2023-07-29T09:40:46;96849.75;;;36.79;30.10
35878;BME280;21982;49.804;24.072;2023-07-29T09:43:16;96797.44;;;36.18;30.21
35878;BME280;21982;49.804;24.072;2023-07-29T09:45:46;96771.94;;;35.59;30.53
35878;BME280;21982;49.804;24.072;2023-07-29T09:48:11;96844.47;;;35.67;30.88
35878;BME280;21982;49.804;24.072;2023-07-29T09:50:36;96850.41;;;35.50;31.15
35878;BME280;21982;49.804;24.072;2023-07-29T09:53:14;96770.66;;;34.83;31.39
35878;BME280;21982;49.804;24.072;2023-07-29T09:55:39;96854.59;;;34.30;32.50
35878;BME280;21982;49.804;24.072;2023-07-29T09:58:05;96743.19;;;32.44;33.80
35878;BME280;21982;49.804;24.072;2023-07-29T10:00:33;96851.91;;;33.50;34.30
35878;BME280;21982;49.804;24.072;2023-07-29T10:03:00;96824.56;;;34.25;32.95
35878;BME280;21982;49.804;24.072;2023-07-29T10:05:28;96821.72;;;35.00;31.85
35878;BME280;21982;49.804;24.072;2023-07-29T10:07:54;96846.09;;;35.87;31.26
35878;BME280;21982;49.804;24.072;2023-07-29T10:10:21;96780.97;;;35.79;30.32
35878;BME280;21982;49.804;24.072;2023-07-29T10:12:47;96851.78;;;36.59;29.95
35878;BME280;21982;49.804;24.072;2023-07-29T10:15:13;96828.44;;;37.03;29.43
35878;BME280;21982;49.804;24.072;2023-07-29T10:17:39;96708.16;;;36.00;29.01
35878;BME280;21982;49.804;24.072;2023-07-29T10:20:09;96842.94;;;37.22;28.78
35878;BME280;21982;49.804;24.072;2023-07-29T10:22:38;96677.53;;;36.28;28.63
35878;BME280;21982;49.804;24.072;2023-07-29T10:25:07;96831.69;;;36.36;29.36
35878;BME280;21982;49.804;24.072;2023-07-29T10:27:42;96780.66;;;34.76;30.85
35878;BME280;21982;49.804;24.072;2023-07-29T10:30:11;96838.25;;;35.00;30.25
35878;BME280;21982;49.804;24.072;2023-07-29T10:32:38;96779.97;;;35.49;29.53
35878;BME280;21982;49.804;24.072;2023-07-29T10:35:06;96832.25;;;35.84;29.38
35878;BME280;21982;49.804;24.072;2023-07-29T10:37:32;96747.19;;;35.82;29.05
35878;BME280;21982;49.804;24.072;2023-07-29T10:39:58;96756.16;;;36.44;28.23
35878;BME280;21982;49.804;24.072;2023-07-29T10:42:23;96806.63;;;37.20;27.96
35878;BME280;21982;49.804;24.072;2023-07-29T10:44:50;96831.44;;;37.73;27.73
35878;BME280;21982;49.804;24.072;2023-07-29T10:47:27;96823.78;;;37.63;27.85
35878;BME280;21982;49.804;24.072;2023-07-29T10:49:57;96825.47;;;38.05;27.30
35878;BME280;21982;49.804;24.072;2023-07-29T10:55:01;96824.09;;;37.88;27.54
35878;BME280;21982;49.804;24.072;2023-07-29T10:57:34;96694.66;;;37.60;27.21
35878;BME280;21982;49.804;24.072;2023-07-29T11:00:05;96818.38;;;38.92;26.82
35878;BME280;21982;49.804;24.072;2023-07-29T11:02:36;96782.34;;;38.88;26.16
35878;BME280;21982;49.804;24.072;2023-07-29T11:05:07;96827.50;;;38.52;27.07
35878;BME280;21982;49.804;24.072;2023-07-29T11:17:34;96819.25;;;35.46;30.39
35878;BME280;21982;49.804;24.072;2023-07-29T11:20:06;96695.19;;;34.65;30.38
35878;BME280;21982;49.804;24.072;2023-07-29T11:22:33;96637.22;;;35.51;29.62
35878;BME280;21982;49.804;24.072;2023-07-29T11:25:08;96775.38;;;36.18;29.70
35878;BME280;21982;49.804;24.072;2023-07-29T11:27:33;96792.59;;;35.69;29.90
35878;BME280;21982;49.804;24.072;2023-07-29T11:30:00;96711.97;;;34.13;31.23
35878;BME280;21982;49.804;24.072;2023-07-29T11:32:26;96788.22;;;34.79;31.46
35878;BME280;21982;49.804;24.072;2023-07-29T11:34:54;96796.44;;;36.07;30.58
35878;BME280;21982;49.804;24.072;2023-07-29T11:37:20;96792.22;;;37.34;29.32
35878;BME280;21982;49.804;24.072;2023-07-29T11:39:48;96762.41;;;38.17;27.90
35878;BME280;21982;49.804;24.072;2023-07-29T11:42:14;96792.59;;;38.33;27.35
35878;BME280;21982;49.804;24.072;2023-07-29T11:44:40;96760.97;;;36.74;28.74
35878;BME280;21982;49.804;24.072;2023-07-29T11:47:07;96620.09;;;34.45;29.93
35878;BME280;21982;49.804;24.072;2023-07-29T11:49:38;96750.56;;;34.32;31.13
35878;BME280;21982;49.804;24.072;2023-07-29T11:52:06;96704.72;;;33.05;32.26
35878;BME280;21982;49.804;24.072;2023-07-29T11:54:32;96685.53;;;32.28;33.51
35878;BME280;21982;49.804;24.072;2023-07-29T11:56:58;96773.56;;;32.39;33.79
35878;BME280;21982;49.804;24.072;2023-07-29T11:59:24;96602.97;;;30.79;34.62
35878;BME280;21982;49.804;24.072;2023-07-29T12:01:49;96417.88;;;28.92;35.50
35878;BME280;21982;49.804;24.072;2023-07-29T12:04:16;96544.03;;;29.48;36.27
35878;BME280;21982;49.804;24.072;2023-07-29T12:06:41;96534.28;;;28.83;37.17
35878;BME280;21982;49.804;24.072;2023-07-29T12:09:07;96562.66;;;28.73;36.88
35878;BME280;21982;49.804;24.072;2023-07-29T12:11:34;96530.94;;;28.51;37.76
35878;BME280;21982;49.804;24.072;2023-07-29T12:14:00;96574.34;;;28.56;38.00
35878;BME280;21982;49.804;24.072;2023-07-29T12:16:26;96516.34;;;28.13;38.18
35878;BME280;21982;49.804;24.072;2023-07-29T12:18:51;96789.38;;;29.53;39.35
35878;BME280;21982;49.804;24.072;2023-07-29T12:28:52;96802.06;;;28.66;42.33
35878;BME280;21982;49.804;24.072;2023-07-29T12:31:18;96528.41;;;26.93;42.19
35878;BME280;21982;49.804;24.072;2023-07-29T12:33:43;96607.53;;;27.84;42.02
35878;BME280;21982;49.804;24.072;2023-07-29T12:36:11;96824.69;;;29.75;41.66
35878;BME280;21982;49.804;24.072;2023-07-29T12:38:59;96649.66;;;29.21;40.47
35878;BME280;21982;49.804;24.072;2023-07-29T12:41:24;96673.50;;;29.50;40.66
35878;BME280;21982;49.804;24.072;2023-07-29T12:43:50;96795.59;;;30.43;40.17
35878;BME280;21982;49.804;24.072;2023-07-29T12:46:15;96739.19;;;30.09;40.13
35878;BME280;21982;49.804;24.072;2023-07-29T12:48:41;96736.94;;;30.11;40.15
35878;BME280;21982;49.804;24.072;2023-07-29T12:51:06;96685.84;;;29.65;40.15
35878;BME280;21982;49.804;24.072;2023-07-29T12:53:31;96771.16;;;29.91;40.36
35878;BME280;21982;49.804;24.072;2023-07-29T12:55:57;96704.31;;;29.51;40.64
35878;BME280;21982;49.804;24.072;2023-07-29T12:58:22;96591.50;;;28.57;40.52
35878;BME280;21982;49.804;24.072;2023-07-29T13:00:47;96792.91;;;29.62;41.30
35878;BME280;21982;49.804;24.072;2023-07-29T13:03:18;96809.59;;;29.60;41.28
35878;BME280;21982;49.804;24.072;2023-07-29T13:05:52;96656.00;;;28.22;42.06
35878;BME280;21982;49.804;24.072;2023-07-29T13:08:21;96698.81;;;28.30;42.32
35878;BME280;21982;49.804;24.072;2023-07-29T13:10:48;96799.72;;;28.82;42.88
35878;BME280;21982;49.804;24.072;2023-07-29T13:13:14;96798.91;;;28.81;43.07
35878;BME280;21982;49.804;24.072;2023-07-29T13:15:39;96799.03;;;28.67;43.33
35878;BME280;21982;49.804;24.072;2023-07-29T13:18:04;96738.50;;;28.22;43.34
35878;BME280;21982;49.804;24.072;2023-07-29T13:20:30;96793.44;;;28.73;43.46
35878;BME280;21982;49.804;24.072;2023-07-29T13:22:55;96677.41;;;28.06;43.27
35878;BME280;21982;49.804;24.072;2023-07-29T13:25:20;96789.44;;;28.79;43.16
35878;BME280;21982;49.804;24.072;2023-07-29T13:27:46;96689.16;;;28.24;42.81
35878;BME280;21982;49.804;24.072;2023-07-29T13:30:11;96797.38;;;29.23;42.31
35878;BME280;21982;49.804;24.072;2023-07-29T13:32:37;96678.53;;;28.88;42.20
35878;BME280;21982;49.804;24.072;2023-07-29T13:35:02;96768.97;;;29.76;41.73
35878;BME280;21982;49.804;24.072;2023-07-29T13:37:27;96638.03;;;29.50;40.62
35878;BME280;21982;49.804;24.072;2023-07-29T13:39:53;96749.34;;;30.38;40.10
35878;BME280;21982;49.804;24.072;2023-07-29T13:42:18;96753.06;;;30.63;39.16
35878;BME280;21982;49.804;24.072;2023-07-29T13:44:44;96778.94;;;30.65;38.84
35878;BME280;21982;49.804;24.072;2023-07-29T13:47:09;96686.84;;;29.98;39.53
35878;BME280;21982;49.804;24.072;2023-07-29T13:49:34;96742.63;;;30.27;39.24
35878;BME280;21982;49.804;24.072;2023-07-29T13:52:00;96745.66;;;30.34;39.66
35878;BME280;21982;49.804;24.072;2023-07-29T13:54:25;96739.97;;;30.48;39.57
35878;BME280;21982;49.804;24.072;2023-07-29T13:56:53;96708.91;;;30.23;39.47
35878;BME280;21982;49.804;24.072;2023-07-29T13:59:19;96718.84;;;30.27;39.76
35878;BME280;21982;49.804;24.072;2023-07-29T14:01:44;96679.16;;;30.00;38.77
35878;BME280;21982;49.804;24.072;2023-07-29T14:04:10;96735.31;;;30.48;38.60
35878;BME280;21982;49.804;24.072;2023-07-29T14:06:35;96757.75;;;30.62;38.73
35878;BME280;21982;49.804;24.072;2023-07-29T14:09:00;96748.69;;;30.41;39.00
35878;BME280;21982;49.804;24.072;2023-07-29T14:11:26;96754.50;;;30.31;39.54
35878;BME280;21982;49.804;24.072;2023-07-29T14:13:51;96741.84;;;30.18;39.52
35878;BME280;21982;49.804;24.072;2023-07-29T14:16:17;96756.75;;;30.29;38.95
35878;BME280;21982;49.804;24.072;2023-07-29T14:18:42;96756.94;;;30.24;39.31
35878;BME280;21982;49.804;24.072;2023-07-29T14:21:07;96756.84;;;30.12;39.90
35878;BME280;21982;49.804;24.072;2023-07-29T14:23:34;96753.91;;;30.17;39.51
35878;BME280;21982;49.804;24.072;2023-07-29T14:25:59;96699.97;;;30.14;39.71
35878;BME280;21982;49.804;24.072;2023-07-29T14:28:24;96747.22;;;30.73;39.51
35878;BME280;21982;49.804;24.072;2023-07-29T14:30:50;96745.56;;;30.81;38.77
35878;BME280;21982;49.804;24.072;2023-07-29T14:33:15;96721.31;;;30.79;38.68
35878;BME280;21982;49.804;24.072;2023-07-29T14:35:41;96746.72;;;31.00;38.68
35878;BME280;21982;49.804;24.072;2023-07-29T14:38:06;96735.91;;;31.04;38.60
35878;BME280;21982;49.804;24.072;2023-07-29T14:40:31;96740.78;;;30.98;39.30
35878;BME280;21982;49.804;24.072;2023-07-29T14:42:57;96735.91;;;31.04;38.92
35878;BME280;21982;49.804;24.072;2023-07-29T14:45:22;96737.91;;;30.95;38.42
35878;BME280;21982;49.804;24.072;2023-07-29T14:47:47;96627.16;;;30.18;38.86
35878;BME280;21982;49.804;24.072;2023-07-29T14:50:13;96713.63;;;30.73;39.10
35878;BME280;21982;49.804;24.072;2023-07-29T14:52:38;96732.28;;;30.91;38.84
35878;BME280;21982;49.804;24.072;2023-07-29T14:55:04;96677.50;;;30.67;38.69
35878;BME280;21982;49.804;24.072;2023-07-29T14:57:30;96617.41;;;30.38;38.56
35878;BME280;21982;49.804;24.072;2023-07-29T14:59:58;96737.94;;;31.16;38.92
35878;BME280;21982;49.804;24.072;2023-07-29T15:02:23;96739.38;;;30.92;38.55
35878;BME280;21982;49.804;24.072;2023-07-29T15:04:55;96730.03;;;30.73;39.43
35878;BME280;21982;49.804;24.072;2023-07-29T15:07:30;96732.34;;;30.62;39.53
35878;BME280;21982;49.804;24.072;2023-07-29T15:10:00;96702.59;;;30.31;40.97
35878;BME280;21982;49.804;24.072;2023-07-29T15:12:25;96487.59;;;28.93;40.29
35878;BME280;21982;49.804;24.072;2023-07-29T15:14:51;96734.94;;;30.58;40.08
35878;BME280;21982;49.804;24.072;2023-07-29T15:17:16;96708.22;;;30.34;40.06
35878;BME280;21982;49.804;24.072;2023-07-29T15:19:41;96555.09;;;28.96;40.29
35878;BME280;21982;49.804;24.072;2023-07-29T15:22:08;96713.47;;;29.55;41.46
35878;BME280;21982;49.804;24.072;2023-07-29T15:24:55;96737.34;;;29.66;41.20